createdAt,value
2024-01-17T00:01:18.942Z,58.82
2024-01-17T00:03:48.149Z,58.28
2024-01-17T00:06:16.099Z,58.59
2024-01-17T00:08:44.291Z,58.38
2024-01-17T00:11:12.671Z,57.85
2024-01-17T00:13:40.776Z,57.36
2024-01-17T00:16:08.607Z,56.88
2024-01-17T00:18:36.468Z,56.44
2024-01-17T00:21:06.446Z,56.03
2024-01-17T00:23:34.284Z,56.06
2024-01-17T00:26:02.238Z,55.85
2024-01-17T00:28:30.429Z,55.73
2024-01-17T00:30:58.366Z,55.44
2024-01-17T00:33:26.730Z,55.59
2024-01-17T00:35:54.614Z,55.34
2024-01-17T00:38:23.735Z,55.20
2024-01-17T00:40:52.451Z,55.80
2024-01-17T00:43:20.152Z,55.51
2024-01-17T00:45:47.926Z,55.71
2024-01-17T00:48:15.757Z,56.04
2024-01-17T00:50:43.752Z,55.75
2024-01-17T00:53:11.525Z,55.87
2024-01-17T00:55:40.756Z,55.88
2024-01-17T00:58:08.474Z,55.93
2024-01-17T01:00:36.314Z,55.79
2024-01-17T01:03:04.495Z,55.96
2024-01-17T01:05:32.320Z,55.77
2024-01-17T01:08:00.123Z,55.74
2024-01-17T01:10:28.012Z,55.25
2024-01-17T01:12:57.109Z,55.47
2024-01-17T01:15:24.934Z,55.96
2024-01-17T01:17:53.821Z,56.05
2024-01-17T01:20:21.863Z,55.99
2024-01-17T01:22:49.618Z,55.67
2024-01-17T01:25:17.643Z,56.25
2024-01-17T01:27:45.534Z,56.05
2024-01-17T01:30:15.050Z,56.28
2024-01-17T01:32:43.214Z,55.84
2024-01-17T01:35:10.991Z,55.84
2024-01-17T01:37:38.740Z,56.00
2024-01-17T01:40:08.606Z,56.55
2024-01-17T01:42:36.835Z,57.61
2024-01-17T01:45:06.209Z,57.79
2024-01-17T01:47:35.451Z,57.29
2024-01-17T01:50:06.250Z,58.42
2024-01-17T01:52:35.431Z,58.61
2024-01-17T01:55:03.985Z,58.64
2024-01-17T01:57:32.522Z,58.78
2024-01-17T02:00:05.817Z,59.18
2024-01-17T02:02:42.134Z,59.21
2024-01-17T02:05:10.717Z,59.08
2024-01-17T02:07:39.945Z,59.44
2024-01-17T02:10:08.668Z,59.44
2024-01-17T02:12:36.476Z,59.31
2024-01-17T02:15:04.619Z,59.66
2024-01-17T02:17:32.508Z,59.71
2024-01-17T02:20:02.907Z,60.48
2024-01-17T02:22:30.694Z,60.27
2024-01-17T02:25:05.142Z,60.48
2024-01-17T02:27:33.080Z,60.68
2024-01-17T02:30:00.949Z,60.79
2024-01-17T02:32:29.234Z,60.73
2024-01-17T02:34:57.344Z,60.31
2024-01-17T02:37:25.063Z,60.34
2024-01-17T02:39:52.866Z,60.34
2024-01-17T02:42:21.967Z,60.75
2024-01-17T02:44:51.977Z,60.45
2024-01-17T02:47:19.879Z,60.62
2024-01-17T02:49:47.696Z,60.35
2024-01-17T02:52:15.459Z,60.93
2024-01-17T02:54:43.205Z,60.73
2024-01-17T02:57:11.199Z,60.39
2024-01-17T02:59:41.702Z,60.42
2024-01-17T03:02:09.923Z,60.57
2024-01-17T03:04:37.696Z,60.36
2024-01-17T03:07:05.890Z,60.72
2024-01-17T03:09:33.729Z,60.74
2024-01-17T03:12:02.687Z,60.35
2024-01-17T03:14:32.801Z,60.17
2024-01-17T03:17:03.383Z,60.66
2024-01-17T03:19:31.261Z,60.71
2024-01-17T03:21:59.128Z,59.93
2024-01-17T03:24:27.103Z,59.86
2024-01-17T03:26:55.021Z,60.02
2024-01-17T03:29:22.758Z,60.24
2024-01-17T03:31:50.518Z,60.50
2024-01-17T03:34:19.738Z,60.48
2024-01-17T03:36:47.621Z,60.68
2024-01-17T03:39:15.903Z,60.63
2024-01-17T03:41:43.930Z,61.18
2024-01-17T03:44:11.707Z,60.93
2024-01-17T03:46:39.798Z,61.37
2024-01-17T03:49:07.672Z,61.21
2024-01-17T03:51:37.176Z,60.74
2024-01-17T03:54:05.293Z,60.92
2024-01-17T03:56:33.487Z,61.17
2024-01-17T03:59:01.882Z,61.98
2024-01-17T04:01:29.643Z,61.88
2024-01-17T04:03:57.455Z,61.99
2024-01-17T04:06:26.653Z,62.07
2024-01-17T04:08:55.949Z,61.93
2024-01-17T04:11:23.862Z,61.99
2024-01-17T04:13:51.670Z,62.87
2024-01-17T04:16:19.557Z,62.77
2024-01-17T04:18:48.230Z,62.35
2024-01-17T04:21:19.804Z,62.38
2024-01-17T04:23:49.869Z,62.88
2024-01-17T04:26:27.406Z,63.41
2024-01-17T04:28:55.603Z,62.64
2024-01-17T04:31:25.465Z,62.19
2024-01-17T04:33:54.248Z,63.05
2024-01-17T04:36:23.592Z,62.73
2024-01-17T04:38:51.401Z,63.08
2024-01-17T04:41:19.553Z,63.30
2024-01-17T04:43:48.729Z,62.92
2024-01-17T04:46:18.055Z,63.17
2024-01-17T04:48:47.180Z,62.95
2024-01-17T04:51:16.589Z,62.62
2024-01-17T04:53:44.971Z,63.21
2024-01-17T04:56:14.696Z,63.70
2024-01-17T04:58:42.807Z,63.96
2024-01-17T05:01:12.476Z,63.93
2024-01-17T05:03:43.775Z,64.27
2024-01-17T05:06:11.726Z,64.24
2024-01-17T05:08:39.736Z,64.77
2024-01-17T05:11:07.494Z,64.42
2024-01-17T05:13:35.307Z,64.61
2024-01-17T05:16:03.552Z,64.65
2024-01-17T05:18:32.927Z,64.63
2024-01-17T05:21:01.733Z,64.69
2024-01-17T05:23:29.669Z,64.55
2024-01-17T05:25:57.539Z,63.96
2024-01-17T05:28:25.569Z,63.86
2024-01-17T05:30:53.629Z,63.75
2024-01-17T05:33:21.741Z,63.31
2024-01-17T05:35:50.915Z,63.40
2024-01-17T05:38:18.947Z,63.49
2024-01-17T05:40:46.853Z,63.28
2024-01-17T05:43:15.081Z,63.47
2024-01-17T05:45:42.936Z,63.66
2024-01-17T05:48:11.140Z,63.83
2024-01-17T05:50:40.215Z,63.91
2024-01-17T05:53:09.665Z,63.74
2024-01-17T05:55:37.508Z,63.77
2024-01-17T05:58:05.645Z,63.82
2024-01-17T06:00:33.588Z,63.89
2024-01-17T06:03:01.579Z,64.14
2024-01-17T06:05:29.694Z,63.96
2024-01-17T06:07:57.580Z,64.02
2024-01-17T06:10:29.598Z,63.78
2024-01-17T06:12:57.367Z,63.59
2024-01-17T06:15:25.497Z,63.91
2024-01-17T06:17:53.507Z,64.07
2024-01-17T06:20:21.600Z,64.32
2024-01-17T06:22:49.523Z,64.19
2024-01-17T06:25:17.996Z,64.77
2024-01-17T06:27:47.090Z,64.71
2024-01-17T06:30:15.878Z,63.85
2024-01-17T06:32:44.115Z,64.20
2024-01-17T06:35:12.877Z,64.44
2024-01-17T06:37:40.753Z,64.20
2024-01-17T06:40:12.306Z,63.89
2024-01-17T06:42:40.589Z,63.92
2024-01-17T06:45:11.843Z,64.01
2024-01-17T06:47:40.252Z,63.85
2024-01-17T06:50:09.322Z,63.87
2024-01-17T06:52:37.785Z,63.62
2024-01-17T06:55:06.629Z,64.14
2024-01-17T06:57:34.373Z,63.74
2024-01-17T07:00:02.628Z,63.75
2024-01-17T07:02:31.900Z,64.29
2024-01-17T07:04:59.720Z,63.97
2024-01-17T07:07:27.427Z,63.89
2024-01-17T07:09:55.275Z,63.75
2024-01-17T07:12:23.708Z,64.41
2024-01-17T07:14:55.406Z,64.07
2024-01-17T07:17:23.551Z,63.80
2024-01-17T07:19:52.706Z,64.00
2024-01-17T07:22:20.491Z,64.53
2024-01-17T07:24:48.340Z,64.35
2024-01-17T07:27:16.180Z,63.83
2024-01-17T07:29:44.222Z,63.57
2024-01-17T07:32:12.245Z,63.74
2024-01-17T07:34:40.238Z,63.36
2024-01-17T07:37:11.879Z,63.18
2024-01-17T07:39:40.581Z,63.24
2024-01-17T07:42:09.945Z,62.81
2024-01-17T07:44:37.896Z,63.26
2024-01-17T07:47:06.009Z,63.23
2024-01-17T07:49:38.592Z,63.40
2024-01-17T07:52:06.693Z,63.19
2024-01-17T07:54:35.998Z,63.39
2024-01-17T07:57:03.949Z,63.30
2024-01-17T07:59:32.053Z,63.45
2024-01-17T08:02:00.346Z,62.84
2024-01-17T08:04:28.227Z,62.56
2024-01-17T08:06:56.040Z,63.23
2024-01-17T08:09:25.220Z,63.08
2024-01-17T08:11:56.422Z,62.81
2024-01-17T08:14:24.818Z,62.53
2024-01-17T08:16:53.233Z,62.53
2024-01-17T08:19:21.732Z,62.58
2024-01-17T08:21:50.781Z,62.79
2024-01-17T08:24:18.665Z,62.73
2024-01-17T08:26:46.828Z,62.99
2024-01-17T08:29:17.935Z,62.81
2024-01-17T08:31:46.918Z,62.56
2024-01-17T08:34:14.949Z,62.68
2024-01-17T08:36:43.130Z,62.48
2024-01-17T08:39:12.231Z,62.61
2024-01-17T08:41:42.904Z,62.50
2024-01-17T08:44:12.185Z,62.34
2024-01-17T08:46:46.387Z,62.35
2024-01-17T08:49:15.688Z,61.96
2024-01-17T08:51:43.890Z,62.03
2024-01-17T08:54:12.544Z,62.28
2024-01-17T08:56:40.920Z,61.65
2024-01-17T08:59:08.829Z,61.66
2024-01-17T09:01:36.727Z,60.97
2024-01-17T09:04:06.949Z,61.34
2024-01-17T09:06:35.231Z,61.08
2024-01-17T09:09:04.519Z,60.86
2024-01-17T09:11:33.318Z,60.00
2024-01-17T09:14:01.259Z,60.05
2024-01-17T09:16:29.102Z,59.63
2024-01-17T09:18:57.030Z,59.42
2024-01-17T09:21:26.893Z,59.86
2024-01-17T09:23:54.818Z,59.42
2024-01-17T09:26:22.653Z,58.98
2024-01-17T09:28:53.451Z,59.09
2024-01-17T09:31:21.344Z,58.98
2024-01-17T09:33:49.436Z,58.22
2024-01-17T09:36:17.727Z,58.93
2024-01-17T09:38:47.074Z,58.57
2024-01-17T09:41:15.679Z,59.15
2024-01-17T09:43:43.427Z,59.11
2024-01-17T09:46:14.098Z,58.88
2024-01-17T09:48:42.508Z,59.44
2024-01-17T09:51:15.276Z,58.97
2024-01-17T09:53:46.439Z,58.95
2024-01-17T09:56:18.010Z,59.32
2024-01-17T09:58:47.612Z,59.26
2024-01-17T10:01:17.011Z,58.87
2024-01-17T10:03:48.693Z,58.58
2024-01-17T10:06:19.212Z,58.33
2024-01-17T10:08:48.094Z,58.30
2024-01-17T10:11:17.843Z,58.14
2024-01-17T10:13:45.685Z,58.66
2024-01-17T10:16:15.349Z,58.40
2024-01-17T10:18:43.282Z,58.86
2024-01-17T10:21:11.915Z,59.15
2024-01-17T10:23:42.194Z,58.69
2024-01-17T10:26:10.732Z,58.88
2024-01-17T10:28:39.984Z,58.95
2024-01-17T10:31:08.559Z,59.03
2024-01-17T10:33:36.754Z,58.73
2024-01-17T10:36:06.917Z,58.91
2024-01-17T10:38:34.690Z,58.80
2024-01-17T10:41:07.308Z,59.09
2024-01-17T10:43:35.425Z,59.09
2024-01-17T10:46:11.131Z,59.10
2024-01-17T10:48:39.461Z,58.73
2024-01-17T10:51:08.908Z,58.55
2024-01-17T10:53:48.142Z,58.35
2024-01-17T10:56:21.178Z,58.16
2024-01-17T10:58:52.081Z,58.23
2024-01-17T11:01:26.434Z,57.75
2024-01-17T11:03:56.039Z,58.15
2024-01-17T11:06:26.424Z,58.44
2024-01-17T11:08:55.856Z,57.87
2024-01-17T11:11:25.330Z,58.20
2024-01-17T11:13:55.088Z,58.16
2024-01-17T11:16:26.268Z,57.27
2024-01-17T11:18:54.712Z,57.12
2024-01-17T11:21:24.676Z,56.99
2024-01-17T11:24:00.393Z,57.48
2024-01-17T11:26:32.745Z,57.72
2024-01-17T11:29:14.816Z,57.73
2024-01-17T11:31:55.528Z,57.42
2024-01-17T11:34:24.316Z,56.99
2024-01-17T11:36:54.046Z,57.60
2024-01-17T11:39:21.977Z,57.20
2024-01-17T11:41:52.026Z,57.14
2024-01-17T11:44:21.688Z,57.16
2024-01-17T11:46:52.805Z,57.26
2024-01-17T11:49:40.310Z,57.86
2024-01-17T11:52:11.276Z,57.98
2024-01-17T11:54:40.301Z,58.46
2024-01-17T11:57:09.490Z,59.01
2024-01-17T11:59:37.905Z,59.16
2024-01-17T12:02:07.749Z,59.60
2024-01-17T12:04:35.851Z,59.69
2024-01-17T12:07:03.896Z,60.16
2024-01-17T12:09:34.133Z,60.67
2024-01-17T12:12:02.955Z,61.09
2024-01-17T12:14:35.366Z,61.18
2024-01-17T12:17:03.349Z,61.50
2024-01-17T12:19:32.559Z,61.35
2024-01-17T12:22:00.932Z,61.77
2024-01-17T12:24:39.019Z,62.30
2024-01-17T12:27:13.472Z,62.57
2024-01-17T12:29:41.296Z,62.18
2024-01-17T12:32:09.133Z,62.08
2024-01-17T12:34:38.698Z,62.30
2024-01-17T12:37:06.583Z,62.40
2024-01-17T12:39:37.056Z,62.14
2024-01-17T12:42:05.574Z,62.01
2024-01-17T12:44:33.986Z,61.53
2024-01-17T12:47:02.981Z,61.59
2024-01-17T12:49:30.822Z,61.72
2024-01-17T12:52:01.100Z,61.34
2024-01-17T12:54:29.141Z,61.34
2024-01-17T12:56:57.360Z,61.22
2024-01-17T12:59:25.928Z,60.89
2024-01-17T13:01:58.770Z,61.24
2024-01-17T13:04:26.618Z,60.87
2024-01-17T13:06:59.002Z,60.93
2024-01-17T13:09:31.629Z,60.51
2024-01-17T13:12:01.360Z,60.37
2024-01-17T13:14:31.076Z,59.90
2024-01-17T13:16:58.961Z,59.82
2024-01-17T13:19:26.867Z,60.31
2024-01-17T13:21:54.871Z,60.68
2024-01-17T13:24:24.285Z,60.76
2024-01-17T13:26:53.640Z,60.67
2024-01-17T13:29:21.602Z,60.26
2024-01-17T13:31:49.584Z,60.28
2024-01-17T13:34:17.539Z,60.39
2024-01-17T13:36:46.317Z,60.27
2024-01-17T13:39:14.328Z,60.14
2024-01-17T13:41:43.010Z,59.80
2024-01-17T13:44:13.157Z,59.82
2024-01-17T13:46:41.270Z,59.68
2024-01-17T13:49:09.740Z,60.09
2024-01-17T13:51:46.511Z,59.53
2024-01-17T13:54:17.189Z,59.12
2024-01-17T13:56:45.747Z,59.17
2024-01-17T13:59:15.108Z,59.17
2024-01-17T14:01:43.066Z,58.66
2024-01-17T14:04:11.467Z,58.98
2024-01-17T14:06:39.755Z,58.96
2024-01-17T14:09:09.476Z,58.93
2024-01-17T14:11:40.523Z,58.79
2024-01-17T14:14:12.326Z,59.37
2024-01-17T14:16:42.902Z,60.28
2024-01-17T14:19:11.864Z,59.67
2024-01-17T14:21:39.902Z,60.20
2024-01-17T14:24:08.471Z,59.70
2024-01-17T14:26:39.278Z,59.33
2024-01-17T14:29:08.921Z,59.42
2024-01-17T14:31:37.097Z,58.98
2024-01-17T14:34:11.030Z,58.87
2024-01-17T14:36:39.052Z,58.55
2024-01-17T14:39:09.417Z,58.31
2024-01-17T14:41:37.429Z,58.17
2024-01-17T14:44:06.074Z,58.42
2024-01-17T14:46:35.159Z,58.47
2024-01-17T14:49:04.008Z,58.65
2024-01-17T14:51:33.375Z,58.20
2024-01-17T14:54:01.298Z,58.17
2024-01-17T14:56:29.161Z,58.59
2024-01-17T14:58:57.490Z,58.33
2024-01-17T15:01:25.389Z,57.96
2024-01-17T15:03:54.442Z,58.09
2024-01-17T15:06:22.958Z,58.21
2024-01-17T15:08:52.866Z,58.62
2024-01-17T15:11:20.909Z,58.29
2024-01-17T15:13:48.840Z,58.58
2024-01-17T15:16:23.242Z,58.44
2024-01-17T15:18:51.609Z,57.96
2024-01-17T15:21:19.820Z,58.22
2024-01-17T15:23:48.826Z,57.92
2024-01-17T15:26:18.495Z,58.17
2024-01-17T15:28:46.380Z,58.21
2024-01-17T15:31:16.737Z,58.40
2024-01-17T15:33:45.124Z,58.01
2024-01-17T15:36:13.155Z,58.18
2024-01-17T15:38:44.852Z,58.50
2024-01-17T15:41:16.016Z,58.67
2024-01-17T15:43:45.343Z,58.72
2024-01-17T15:46:13.951Z,58.93
2024-01-17T15:48:42.295Z,58.65
2024-01-17T15:51:10.508Z,58.39
2024-01-17T15:53:38.417Z,58.42
2024-01-17T15:56:06.751Z,58.72
2024-01-17T15:58:34.515Z,58.90
2024-01-17T16:01:03.778Z,58.85
2024-01-17T16:03:32.146Z,58.78
2024-01-17T16:06:01.983Z,58.95
2024-01-17T16:08:29.953Z,59.22
2024-01-17T16:10:58.024Z,59.04
2024-01-17T16:13:26.847Z,59.54
2024-01-17T16:15:55.505Z,59.09
2024-01-17T16:18:24.788Z,59.36
2024-01-17T16:20:52.901Z,59.41
2024-01-17T16:23:20.716Z,59.16
2024-01-17T16:25:48.668Z,59.20
2024-01-17T16:28:16.424Z,59.59
2024-01-17T16:30:49.862Z,59.85
2024-01-17T16:33:17.531Z,59.34
2024-01-17T16:35:47.829Z,59.43
2024-01-17T16:38:15.725Z,60.27
2024-01-17T16:40:43.829Z,60.37
2024-01-17T16:43:13.384Z,59.95
2024-01-17T16:45:41.715Z,59.72
2024-01-17T16:48:09.604Z,60.38
2024-01-17T16:50:37.517Z,60.48
2024-01-17T16:53:06.775Z,60.38
2024-01-17T16:55:34.606Z,59.95
2024-01-17T16:58:03.481Z,60.30
2024-01-17T17:00:31.583Z,59.91
2024-01-17T17:02:59.536Z,60.22
2024-01-17T17:05:27.569Z,60.08
2024-01-17T17:07:55.961Z,60.09
2024-01-17T17:10:25.252Z,60.04
2024-01-17T17:12:53.631Z,60.20
2024-01-17T17:15:22.319Z,59.62
2024-01-17T17:17:50.400Z,59.58
2024-01-17T17:20:19.137Z,59.57
2024-01-17T17:22:47.057Z,59.88
2024-01-17T17:25:16.493Z,59.88
2024-01-17T17:27:47.368Z,60.20
2024-01-17T17:30:16.668Z,60.15
2024-01-17T17:32:45.356Z,60.01
2024-01-17T17:35:13.878Z,59.80
2024-01-17T17:37:41.737Z,59.91
2024-01-17T17:40:10.668Z,60.08
2024-01-17T17:42:39.893Z,60.81
2024-01-17T17:45:11.043Z,61.01
2024-01-17T17:47:39.350Z,60.48
2024-01-17T17:50:12.641Z,60.59
2024-01-17T17:52:40.469Z,60.75
2024-01-17T17:55:09.245Z,60.72
2024-01-17T17:57:38.198Z,60.78
2024-01-17T18:00:07.229Z,61.08
2024-01-17T18:02:36.556Z,61.23
2024-01-17T18:05:04.992Z,60.74
2024-01-17T18:07:34.067Z,60.87
2024-01-17T18:10:01.993Z,61.20
2024-01-17T18:12:30.385Z,61.09
2024-01-17T18:14:58.285Z,61.23
2024-01-17T18:17:26.335Z,61.20
2024-01-17T18:19:56.435Z,60.89
2024-01-17T18:22:24.652Z,60.54
2024-01-17T18:24:52.466Z,60.45
2024-01-17T18:27:20.356Z,60.40
2024-01-17T18:29:48.188Z,60.93
2024-01-17T18:32:16.126Z,60.76
2024-01-17T18:34:44.835Z,60.69
2024-01-17T18:37:14.100Z,60.66
2024-01-17T18:39:42.023Z,60.83
2024-01-17T18:42:09.943Z,60.92
2024-01-17T18:44:37.886Z,61.10
2024-01-17T18:47:06.058Z,61.72
2024-01-17T18:49:33.925Z,61.80
2024-01-17T18:52:01.928Z,61.74
2024-01-17T18:54:31.446Z,61.74
2024-01-17T18:56:59.424Z,62.09
2024-01-17T18:59:27.784Z,62.19
2024-01-17T19:01:55.928Z,61.63
2024-01-17T19:04:23.891Z,61.53
2024-01-17T19:06:51.779Z,61.65
2024-01-17T19:09:20.131Z,62.19
2024-01-17T19:11:49.451Z,62.06
2024-01-17T19:14:18.215Z,61.79
2024-01-17T19:16:46.252Z,61.88
2024-01-17T19:19:14.922Z,61.76
2024-01-17T19:21:43.261Z,61.74
2024-01-17T19:24:11.254Z,62.22
2024-01-17T19:26:39.211Z,62.19
2024-01-17T19:29:09.261Z,61.94
2024-01-17T19:31:37.116Z,61.71
2024-01-17T19:34:05.044Z,62.61
2024-01-17T19:36:34.673Z,62.64
2024-01-17T19:39:02.948Z,62.65
2024-01-17T19:41:30.927Z,62.96
2024-01-17T19:43:58.793Z,62.63
2024-01-17T19:46:29.582Z,62.62
2024-01-17T19:48:57.675Z,62.31
2024-01-17T19:51:27.901Z,61.55
2024-01-17T19:53:55.954Z,61.59
2024-01-17T19:56:23.839Z,62.17
2024-01-17T19:58:53.742Z,62.30
2024-01-17T20:01:21.875Z,61.86
2024-01-17T20:03:51.326Z,61.65
2024-01-17T20:06:22.597Z,61.17
2024-01-17T20:08:51.068Z,61.28
2024-01-17T20:11:20.766Z,61.80
2024-01-17T20:13:49.013Z,61.51
2024-01-17T20:16:17.460Z,61.31
2024-01-17T20:18:45.464Z,61.20
2024-01-17T20:21:22.278Z,61.20
2024-01-17T20:23:51.452Z,60.95
2024-01-17T20:26:21.020Z,61.08
2024-01-17T20:28:48.951Z,61.24
2024-01-17T20:31:17.089Z,60.60
2024-01-17T20:33:45.076Z,60.58
2024-01-17T20:36:14.570Z,60.30
2024-01-17T20:38:43.810Z,60.39
2024-01-17T20:41:16.230Z,60.50
2024-01-17T20:43:44.413Z,60.24
2024-01-17T20:46:13.402Z,60.07
2024-01-17T20:48:41.520Z,60.33
2024-01-17T20:51:09.696Z,60.57
2024-01-17T20:53:37.864Z,59.91
2024-01-17T20:56:08.811Z,59.83
2024-01-17T20:58:36.780Z,59.93
2024-01-17T21:01:04.789Z,59.79
2024-01-17T21:03:32.793Z,59.93
2024-01-17T21:06:01.230Z,60.06
2024-01-17T21:08:29.259Z,59.89
2024-01-17T21:10:57.072Z,59.66
2024-01-17T21:13:26.190Z,59.22
2024-01-17T21:15:55.042Z,59.50
2024-01-17T21:18:23.481Z,59.34
2024-01-17T21:20:55.662Z,59.32
2024-01-17T21:23:28.195Z,59.05
2024-01-17T21:25:56.629Z,58.80
2024-01-17T21:28:25.810Z,58.89
2024-01-17T21:30:53.765Z,58.94
2024-01-17T21:33:23.206Z,59.04
2024-01-17T21:35:51.194Z,58.98
2024-01-17T21:38:19.054Z,59.03
2024-01-17T21:40:46.973Z,58.76
2024-01-17T21:43:14.880Z,58.77
2024-01-17T21:45:44.115Z,58.41
2024-01-17T21:48:11.984Z,58.40
2024-01-17T21:50:39.908Z,58.49
2024-01-17T21:53:07.685Z,58.07
2024-01-17T21:55:35.591Z,57.70
2024-01-17T21:58:04.062Z,57.70
2024-01-17T22:00:32.148Z,57.50
2024-01-17T22:03:01.436Z,57.28
2024-01-17T22:05:29.562Z,56.90
2024-01-17T22:07:57.640Z,56.46
2024-01-17T22:10:25.568Z,56.35
2024-01-17T22:12:53.421Z,56.05
2024-01-17T22:15:21.541Z,56.11
2024-01-17T22:17:53.015Z,55.80
2024-01-17T22:20:24.257Z,55.32
2024-01-17T22:22:52.697Z,55.15
2024-01-17T22:25:21.149Z,55.08
2024-01-17T22:27:49.020Z,54.85
2024-01-17T22:30:17.216Z,55.06
2024-01-17T22:32:45.134Z,55.07
2024-01-17T22:35:13.336Z,55.20
2024-01-17T22:37:42.454Z,55.41
2024-01-17T22:40:11.767Z,55.39
2024-01-17T22:42:39.596Z,55.85
2024-01-17T22:45:09.021Z,55.98
2024-01-17T22:47:37.140Z,55.47
2024-01-17T22:50:05.810Z,55.53
2024-01-17T22:52:33.807Z,55.36
2024-01-17T22:55:03.143Z,55.23
2024-01-17T22:57:30.999Z,55.15
2024-01-17T22:59:58.821Z,55.52
2024-01-17T23:02:26.549Z,56.09
2024-01-17T23:04:54.443Z,56.04
2024-01-17T23:07:22.846Z,56.50
2024-01-17T23:09:51.382Z,56.56
2024-01-17T23:12:20.597Z,57.40
2024-01-17T23:14:48.508Z,57.81
2024-01-17T23:17:17.832Z,57.97
2024-01-17T23:19:45.799Z,58.20
2024-01-17T23:22:13.857Z,58.73
2024-01-17T23:24:41.733Z,58.72
2024-01-17T23:27:09.478Z,58.39
2024-01-17T23:29:38.867Z,58.55
2024-01-17T23:32:06.899Z,58.89
2024-01-17T23:34:34.851Z,59.01
2024-01-17T23:37:02.898Z,59.23
2024-01-17T23:39:30.835Z,59.13
2024-01-17T23:41:58.810Z,59.28
2024-01-17T23:44:26.604Z,59.34
2024-01-17T23:46:55.882Z,59.26
2024-01-17T23:49:23.782Z,58.83
2024-01-17T23:51:51.564Z,58.87
2024-01-17T23:54:19.508Z,59.32
2024-01-17T23:56:47.432Z,59.11
2024-01-17T23:59:15.231Z,58.95
